Time;durP1;ratioP1;P1;durP2;ratioP2;P2;SDS_P1;SDS_P2;PMS_P1;PMS_P2;Temp;Humidity;BMP_temperature;BMP_pressure;BME280_temperature;BME280_humidity;BME280_pressure;Samples;Min_cycle;Max_cycle;Signal;HPM_P1;HPM_P2
2022/06/28 00:00:42;;;;;;;15.48;9.77;;;;;;;16.79;100.00;101302.19;4978933;28;20050;-87
2022/06/28 00:03:09;;;;;;;10.55;9.60;;;;;;;16.75;100.00;101299.66;4997192;28;20519;-88
2022/06/28 00:05:37;;;;;;;11.30;8.90;;;;;;;16.74;100.00;101308.47;4947603;28;20712;-87
2022/06/28 00:08:05;;;;;;;12.63;9.40;;;;;;;16.76;100.00;101310.19;4962696;28;20070;-87
2022/06/28 00:10:35;;;;;;;11.50;10.00;;;;;;;16.76;100.00;101315.47;4981861;28;20157;-88
2022/06/28 00:13:07;;;;;;;10.02;9.07;;;;;;;16.76;100.00;101318.09;4966379;28;20049;-87
2022/06/28 00:18:19;;;;;;;9.52;8.40;;;;;;;16.75;100.00;101316.41;4985270;28;20046;-87
2022/06/28 00:20:46;;;;;;;9.20;8.25;;;;;;;16.71;100.00;101327.91;4984484;28;20805;-87
2022/06/28 00:25:57;;;;;;;22.65;10.07;;;;;;;16.65;100.00;101339.53;4981774;28;20074;-86
2022/06/28 00:28:24;;;;;;;10.07;8.90;;;;;;;16.66;100.00;101351.84;4980929;28;20688;-86
2022/06/28 00:30:51;;;;;;;11.45;9.18;;;;;;;16.59;100.00;101352.03;4967471;28;20072;-86
2022/06/28 00:33:19;;;;;;;12.43;10.15;;;;;;;16.54;100.00;101360.03;4965754;28;20073;-86
2022/06/28 00:35:47;;;;;;;10.60;9.50;;;;;;;16.49;100.00;101376.00;4967874;28;20077;-86
2022/06/28 00:38:14;;;;;;;11.25;8.82;;;;;;;16.51;100.00;101373.34;4964819;28;20046;-86
2022/06/28 00:43:48;;;;;;;11.60;9.40;;;;;;;16.54;100.00;101386.47;5003886;28;20046;-85
2022/06/28 00:49:09;;;;;;;14.77;11.05;;;;;;;16.48;100.00;101391.91;4973508;28;20042;-85
2022/06/28 00:51:36;;;;;;;11.40;10.20;;;;;;;16.45;100.00;101395.50;4990350;28;20134;-85
2022/06/28 00:54:15;;;;;;;10.85;9.27;;;;;;;16.42;99.36;101392.03;4987748;28;20118;-86
2022/06/28 00:56:42;;;;;;;11.45;9.48;;;;;;;16.36;99.11;101400.94;4982216;28;20563;-87
2022/06/28 00:59:10;;;;;;;12.55;11.35;;;;;;;16.30;97.97;101394.03;4964936;28;20064;-87
2022/06/28 01:01:38;;;;;;;10.30;9.30;;;;;;;16.21;98.17;101400.34;4966108;28;20374;-87
2022/06/28 01:04:05;;;;;;;14.35;10.63;;;;;;;16.12;98.45;101408.47;4982187;28;20104;-86
2022/06/28 01:06:34;;;;;;;10.57;9.57;;;;;;;15.98;98.60;101410.53;4978596;28;20043;-86
2022/06/28 01:09:01;;;;;;;10.32;9.30;;;;;;;15.84;99.34;101402.88;4980203;28;20096;-87
2022/06/28 01:11:28;;;;;;;11.77;10.23;;;;;;;15.70;99.39;101395.19;4981385;28;20120;-86
2022/06/28 01:14:07;;;;;;;11.80;10.40;;;;;;;15.59;99.98;101411.22;4982683;28;20787;-87
2022/06/28 01:16:37;;;;;;;10.45;9.40;;;;;;;15.44;100.00;101401.78;4977573;28;20054;-87
2022/06/28 01:19:11;;;;;;;14.27;10.45;;;;;;;15.37;100.00;101400.16;4981076;28;20057;-87
2022/06/28 01:21:39;;;;;;;12.23;10.82;;;;;;;15.29;100.00;101399.41;5000997;28;20046;-86
2022/06/28 01:24:07;;;;;;;11.52;10.38;;;;;;;15.18;100.00;101395.16;4983319;28;20030;-87
2022/06/28 01:26:36;;;;;;;11.05;10.05;;;;;;;15.11;100.00;101401.47;4981720;28;20729;-86
2022/06/28 01:29:03;;;;;;;12.15;10.50;;;;;;;15.06;100.00;101403.28;4986031;28;20389;-86
2022/06/28 01:31:31;;;;;;;14.80;11.35;;;;;;;14.98;100.00;101402.53;4954161;28;20258;-87
2022/06/28 01:34:01;;;;;;;13.30;11.25;;;;;;;14.91;100.00;101407.03;4974738;28;20130;-86
2022/06/28 01:36:31;;;;;;;14.30;10.63;;;;;;;14.82;100.00;101409.78;4982151;28;20049;-86
2022/06/28 01:38:57;;;;;;;14.43;11.32;;;;;;;14.77;100.00;101409.00;4982765;28;20042;-87
2022/06/28 01:44:10;;;;;;;;;;;;;;;14.66;100.00;101410.00;4972275;28;20065;-85
2022/06/28 01:46:40;;;;;;;13.35;9.95;;;;;;;14.58;100.00;101408.34;4982093;28;20741;-86
2022/06/28 01:49:08;;;;;;;9.65;8.65;;;;;;;14.53;100.00;101411.91;4983695;28;20043;-86
2022/06/28 01:51:35;;;;;;;10.07;8.10;;;;;;;14.46;100.00;101412.03;4967722;28;20378;-88
2022/06/28 01:54:02;;;;;;;12.20;9.93;;;;;;;14.42;100.00;101419.09;4982127;28;20058;-87
2022/06/28 01:56:31;;;;;;;10.98;8.80;;;;;;;14.38;100.00;101418.25;4980919;28;20129;-87
2022/06/28 01:58:58;;;;;;;12.90;9.43;;;;;;;14.34;100.00;101416.56;4969095;28;20047;-87
2022/06/28 02:01:28;;;;;;;11.60;8.60;;;;;;;14.30;100.00;101420.13;4985906;28;20090;-87
2022/06/28 02:03:55;;;;;;;13.15;10.00;;;;;;;14.26;100.00;101421.03;5002383;28;20047;-87
2022/06/28 02:06:22;;;;;;;11.93;8.50;;;;;;;14.19;100.00;101427.25;4983439;28;20046;-88
2022/06/28 02:08:49;;;;;;;10.30;9.25;;;;;;;14.13;100.00;101422.06;5001147;28;20073;-87
2022/06/28 02:11:16;;;;;;;10.73;8.75;;;;;;;14.08;100.00;101424.75;5014908;28;20172;-86
2022/06/28 02:13:43;;;;;;;9.60;8.68;;;;;;;14.03;100.00;101430.06;5000985;28;20035;-87
2022/06/28 02:16:10;;;;;;;11.05;8.30;;;;;;;14.02;100.00;101427.47;5005584;28;20042;-87
2022/06/28 02:18:37;;;;;;;14.32;8.57;;;;;;;13.99;100.00;101432.78;4986153;28;20544;-87
2022/06/28 02:21:04;;;;;;;11.15;8.27;;;;;;;13.98;100.00;101436.28;4987874;28;20069;-87
2022/06/28 02:23:31;;;;;;;11.25;10.15;;;;;;;13.96;100.00;101438.03;5001928;28;20057;-87
2022/06/28 02:25:58;;;;;;;10.15;9.15;;;;;;;13.93;100.00;101432.81;4954727;28;20050;-87
2022/06/28 02:28:25;;;;;;;10.32;9.20;;;;;;;13.90;100.00;101428.47;4979743;28;20121;-87
2022/06/28 02:31:03;;;;;;;10.63;8.23;;;;;;;13.88;100.00;101435.50;4985802;28;20054;-86
2022/06/28 02:33:30;;;;;;;13.88;9.05;;;;;;;13.91;100.00;101427.59;4984254;28;20066;-86
2022/06/28 02:41:27;;;;;;;10.27;8.60;;;;;;;14.23;100.00;101437.72;4997070;28;20038;-86
2022/06/28 02:43:54;;;;;;;14.02;9.18;;;;;;;14.34;100.00;101444.63;4968558;28;20047;-86
2022/06/28 02:46:21;;;;;;;9.13;8.25;;;;;;;14.46;100.00;101441.00;4984817;28;20626;-88
2022/06/28 02:48:48;;;;;;;9.63;7.65;;;;;;;14.56;100.00;101442.59;4978795;28;20043;-86
2022/06/28 02:51:15;;;;;;;9.68;8.43;;;;;;;14.66;100.00;101436.34;4982905;28;20046;-85
2022/06/28 02:53:43;;;;;;;9.05;8.15;;;;;;;14.74;100.00;101445.94;4981230;28;20050;-86
2022/06/28 02:56:09;;;;;;;11.43;8.25;;;;;;;14.74;100.00;101435.41;4982595;28;20061;-86
2022/06/28 02:58:39;;;;;;;13.27;8.13;;;;;;;14.75;100.00;101427.47;4963506;28;20105;-87
2022/06/28 03:01:06;;;;;;;7.95;7.20;;;;;;;14.80;100.00;101437.97;4983734;28;20108;-85
2022/06/28 03:03:33;;;;;;;12.98;7.47;;;;;;;14.83;100.00;101448.44;4981540;28;20132;-86
2022/06/28 03:06:04;;;;;;;10.10;8.05;;;;;;;14.88;100.00;101442.19;4983682;28;20050;-86
2022/06/28 03:08:34;;;;;;;8.45;7.10;;;;;;;14.89;100.00;101445.72;4978033;28;20042;-86
2022/06/28 03:11:01;;;;;;;9.63;7.72;;;;;;;14.91;100.00;101445.69;4974894;28;20049;-88
2022/06/28 03:16:09;;;;;;;8.40;7.45;;;;;;;14.86;100.00;101443.13;4988730;28;20050;-87
2022/06/28 03:21:46;;;;;;;17.15;9.38;;;;;;;14.82;100.00;101452.84;4988926;28;20027;-90
2022/06/28 03:24:16;;;;;;;10.02;8.32;;;;;;;14.76;100.00;101454.69;4983397;28;20472;-91
2022/06/28 03:26:43;;;;;;;10.93;9.13;;;;;;;14.69;100.00;101454.78;4995384;28;20053;-88
2022/06/28 03:29:12;;;;;;;10.05;9.10;;;;;;;14.64;100.00;101460.97;4968841;28;20057;-88
2022/06/28 03:31:44;;;;;;;12.82;9.80;;;;;;;14.60;100.00;101462.78;4986797;28;20053;-87
2022/06/28 03:34:14;;;;;;;12.35;10.35;;;;;;;14.60;100.00;101468.06;4971701;28;20042;-88
2022/06/28 03:36:59;;;;;;;14.45;10.02;;;;;;;14.68;100.00;101466.22;4987192;28;20596;-89
2022/06/28 03:39:28;;;;;;;12.82;10.52;;;;;;;14.72;100.00;101475.81;4986373;28;20409;-89
2022/06/28 03:41:57;;;;;;;13.20;10.35;;;;;;;14.78;100.00;101479.25;4984556;28;20048;-88
2022/06/28 03:44:24;;;;;;;13.82;12.43;;;;;;;14.83;100.00;101478.31;4969369;28;20081;-87
2022/06/28 03:46:51;;;;;;;11.07;10.00;;;;;;;14.80;100.00;101482.75;4986555;28;20042;-87
2022/06/28 03:49:17;;;;;;;16.02;11.90;;;;;;;14.84;100.00;101490.59;4968600;28;20042;-88
2022/06/28 03:51:46;;;;;;;16.08;12.38;;;;;;;14.90;99.95;101487.03;4973129;28;20050;-85
2022/06/28 03:54:13;;;;;;;16.63;11.82;;;;;;;14.88;100.00;101492.28;4971899;28;20046;-87
2022/06/28 03:56:39;;;;;;;12.75;11.48;;;;;;;14.92;99.92;101497.53;4977277;28;20043;-87
2022/06/28 03:59:06;;;;;;;15.43;11.48;;;;;;;14.86;100.00;101491.47;4984338;28;20042;-86
2022/06/28 04:01:43;;;;;;;18.70;12.05;;;;;;;14.79;100.00;101494.19;4988363;28;20098;-87
2022/06/28 04:04:26;;;;;;;12.32;11.13;;;;;;;14.73;100.00;101500.41;4988375;28;20050;-87
2022/06/28 04:06:59;;;;;;;14.13;12.47;;;;;;;14.71;100.00;101507.47;4989626;28;20046;-87
2022/06/28 04:09:29;;;;;;;14.85;11.82;;;;;;;14.77;100.00;101502.13;4987845;28;20049;-85
2022/06/28 04:12:02;;;;;;;15.82;11.60;;;;;;;14.87;100.00;101500.22;4973403;28;20038;-87
2022/06/28 04:14:29;;;;;;;15.57;11.70;;;;;;;14.96;100.00;101502.72;4990890;28;20046;-85
2022/06/28 04:16:58;;;;;;;17.27;10.93;;;;;;;15.02;99.15;101502.66;4975610;28;20061;-89
2022/06/28 04:19:25;;;;;;;17.98;11.50;;;;;;;15.07;99.37;101504.34;4973455;28;20074;-89
2022/06/28 04:21:52;;;;;;;19.83;13.05;;;;;;;15.10;98.83;101509.59;4974953;28;20050;-88
2022/06/28 04:24:22;;;;;;;15.40;13.32;;;;;;;15.15;97.87;101513.06;4986722;28;20058;-86
2022/06/28 04:26:49;;;;;;;15.63;11.85;;;;;;;15.19;98.12;101514.75;4971373;28;20141;-89
2022/06/28 04:29:16;;;;;;;14.27;11.05;;;;;;;15.22;97.61;101512.06;4979649;28;20050;-87
2022/06/28 04:31:45;;;;;;;13.93;12.43;;;;;;;15.28;97.18;101516.34;4979278;28;20073;-88
2022/06/28 04:34:12;;;;;;;14.85;12.02;;;;;;;15.28;96.73;101511.06;4991033;28;20066;-87
2022/06/28 04:36:42;;;;;;;16.48;13.10;;;;;;;15.33;96.11;101525.06;4990412;28;20042;-86
2022/06/28 04:39:09;;;;;;;14.95;12.32;;;;;;;15.33;96.04;101522.44;4991680;28;20062;-87
2022/06/28 04:41:36;;;;;;;17.63;13.32;;;;;;;15.31;95.54;101514.56;4971076;28;20042;-88
2022/06/28 04:44:07;;;;;;;13.88;12.43;;;;;;;15.19;95.87;101520.03;4983328;28;20039;-87
2022/06/28 04:46:42;;;;;;;13.60;11.23;;;;;;;15.06;96.80;101516.69;4982517;28;20049;-89
2022/06/28 04:49:12;;;;;;;17.95;12.75;;;;;;;14.92;97.37;101524.75;4982220;28;20105;-88
2022/06/28 04:51:49;;;;;;;14.98;12.27;;;;;;;14.71;98.42;101525.91;4984567;28;20059;-88
2022/06/28 04:54:18;;;;;;;19.05;12.07;;;;;;;14.56;99.62;101530.44;4984063;28;20043;-89
2022/06/28 04:56:54;;;;;;;15.93;11.98;;;;;;;14.50;100.00;101530.50;4986302;28;20046;-88
2022/06/28 04:59:22;;;;;;;16.63;13.00;;;;;;;14.48;100.00;101531.41;4977555;28;20058;-87
2022/06/28 05:01:49;;;;;;;16.75;12.13;;;;;;;14.48;100.00;101524.38;4975813;28;20167;-87
2022/06/28 05:04:23;;;;;;;16.52;12.70;;;;;;;14.51;100.00;101526.09;4989841;28;20058;-89
2022/06/28 05:06:54;;;;;;;12.85;10.90;;;;;;;14.52;100.00;101528.75;4988149;28;20070;-88
2022/06/28 05:09:21;;;;;;;15.80;11.27;;;;;;;14.55;99.99;101541.00;4986448;28;20849;-88
2022/06/28 05:11:48;;;;;;;17.52;12.80;;;;;;;14.55;100.00;101544.50;4987205;28;20125;-87
2022/06/28 05:14:16;;;;;;;20.13;12.70;;;;;;;14.65;99.56;101541.78;4971779;28;20038;-88
2022/06/28 05:16:45;;;;;;;17.30;12.35;;;;;;;14.72;98.93;101551.38;4986364;28;20081;-87
2022/06/28 05:19:13;;;;;;;15.43;12.48;;;;;;;14.72;98.04;101540.84;4988015;28;20234;-88
2022/06/28 05:21:49;;;;;;;13.88;12.35;;;;;;;14.73;98.08;101550.47;4972876;28;20125;-87
2022/06/28 05:24:29;;;;;;;17.90;12.60;;;;;;;14.75;97.64;101546.06;4968917;28;20146;-88
2022/06/28 05:26:58;;;;;;;14.02;11.93;;;;;;;14.79;97.57;101546.91;4973441;28;20100;-88
2022/06/28 05:29:31;;;;;;;19.45;12.10;;;;;;;14.80;97.31;101544.25;5001966;28;20042;-89
2022/06/28 05:31:59;;;;;;;13.57;11.60;;;;;;;14.81;97.04;101538.09;4988175;28;20112;-88
2022/06/28 05:34:39;;;;;;;16.75;11.10;;;;;;;14.86;97.20;101533.63;4970620;28;20128;-88
2022/06/28 05:37:07;;;;;;;13.93;11.57;;;;;;;14.91;96.64;101530.06;4974915;28;20110;-90
2022/06/28 05:39:37;;;;;;;22.00;12.73;;;;;;;15.00;95.51;101524.66;4975129;28;20069;-88
2022/06/28 05:42:17;;;;;;;;;;;;;;;;;;;;;
2022/06/28 05:44:54;;;;;;;12.73;9.80;;;;;;;15.09;93.93;101526.31;5004933;28;20053;-88
2022/06/28 05:47:22;;;;;;;13.00;9.50;;;;;;;15.11;92.83;101520.13;4990173;28;20038;-88
2022/06/28 05:49:51;;;;;;;13.00;8.98;;;;;;;15.14;92.42;101522.72;4990373;28;20057;-87
2022/06/28 05:52:26;;;;;;;15.90;9.73;;;;;;;15.18;91.71;101518.28;4988759;28;20050;-89
2022/06/28 05:54:55;;;;;;;12.25;9.32;;;;;;;15.20;90.49;101521.75;4977858;28;20043;-89
2022/06/28 05:57:28;;;;;;;12.02;9.57;;;;;;;15.23;90.71;101524.34;4976298;28;20050;-88
2022/06/28 05:59:56;;;;;;;13.80;9.07;;;;;;;15.25;90.08;101525.19;4976927;28;20039;-87
2022/06/28 06:02:25;;;;;;;12.23;9.10;;;;;;;15.29;90.06;101529.56;4989997;28;20047;-89
2022/06/28 06:04:54;;;;;;;13.32;8.75;;;;;;;15.35;89.49;101520.66;4993024;28;20129;-88
2022/06/28 06:07:23;;;;;;;11.45;8.85;;;;;;;15.39;89.16;101517.06;4978991;28;20767;-90
2022/06/28 06:09:53;;;;;;;11.45;7.60;;;;;;;15.44;89.21;101517.88;4977764;28;20069;-88
2022/06/28 06:12:21;;;;;;;12.27;7.70;;;;;;;15.59;88.51;101526.44;4993409;28;20050;-89
2022/06/28 06:14:55;;;;;;;11.77;7.57;;;;;;;15.72;87.19;101527.97;4993256;28;20078;-87
2022/06/28 06:17:22;;;;;;;10.68;6.95;;;;;;;15.77;86.64;101528.78;4976345;28;20509;-88
2022/06/28 06:19:50;;;;;;;8.48;6.38;;;;;;;15.84;86.67;101532.25;5010439;28;20053;-86
2022/06/28 06:22:17;;;;;;;7.68;6.63;;;;;;;15.93;85.60;101529.44;4991318;28;20058;-88
2022/06/28 06:24:44;;;;;;;6.28;5.20;;;;;;;15.99;84.23;101533.75;4977797;28;20110;-87
2022/06/28 06:27:14;;;;;;;10.88;5.72;;;;;;;16.02;83.59;101531.94;4974607;28;20504;-87
2022/06/28 06:29:42;;;;;;;7.53;5.82;;;;;;;16.07;81.93;101525.69;4972227;28;20115;-87
2022/06/28 06:32:13;;;;;;;5.90;5.22;;;;;;;16.08;82.00;101538.84;4991967;28;20038;-86
2022/06/28 06:34:41;;;;;;;6.55;4.25;;;;;;;16.10;81.24;101534.44;4991317;28;20077;-86
2022/06/28 06:37:08;;;;;;;6.07;5.13;;;;;;;16.17;80.93;101530.75;4990442;28;20042;-88
2022/06/28 06:39:36;;;;;;;8.95;4.93;;;;;;;16.27;80.00;101534.13;4991425;28;20707;-87
2022/06/28 06:42:04;;;;;;;8.85;5.03;;;;;;;16.33;78.68;101536.63;4990204;28;20125;-87
2022/06/28 06:44:32;;;;;;;5.78;4.22;;;;;;;16.33;78.81;101535.78;4990178;28;20080;-87
2022/06/28 06:46:59;;;;;;;5.68;3.88;;;;;;;16.36;78.77;101549.81;4995396;28;20046;-87
2022/06/28 06:49:26;;;;;;;6.60;4.22;;;;;;;16.45;77.36;101542.59;4976313;28;20512;-87
2022/06/28 06:51:56;;;;;;;4.40;3.22;;;;;;;16.50;76.18;101538.97;4990404;28;20058;-89
2022/06/28 06:54:23;;;;;;;5.20;3.88;;;;;;;16.58;74.67;101545.88;4975565;28;20053;-87
2022/06/28 06:56:51;;;;;;;5.30;3.35;;;;;;;16.61;74.37;101540.50;4970817;28;20046;-88
2022/06/28 06:59:18;;;;;;;5.15;3.85;;;;;;;16.64;73.14;101532.53;4991926;28;20108;-87
2022/06/28 07:01:45;;;;;;;8.80;3.65;;;;;;;16.70;73.70;101532.41;4987930;28;20050;-88
2022/06/28 07:04:15;;;;;;;6.95;3.92;;;;;;;16.82;73.39;101539.22;4974985;28;20677;-88
2022/06/28 07:06:43;;;;;;;5.05;3.03;;;;;;;16.87;72.66;101546.16;4992491;28;20074;-88
2022/06/28 07:09:14;;;;;;;3.65;2.90;;;;;;;16.98;71.50;101547.72;4986918;28;20066;-88
2022/06/28 07:11:42;;;;;;;2.92;2.20;;;;;;;17.06;70.94;101534.34;4970993;28;20126;-87
2022/06/28 07:14:10;;;;;;;4.65;2.05;;;;;;;17.16;68.83;101542.03;4992601;28;20035;-86
2022/06/28 07:16:38;;;;;;;8.20;2.53;;;;;;;17.25;68.49;101538.31;4990770;28;20126;-86
2022/06/28 07:19:08;;;;;;;3.75;1.98;;;;;;;17.35;67.46;101544.25;4986135;28;20133;-87
2022/06/28 07:21:35;;;;;;;4.75;1.25;;;;;;;17.40;67.09;101544.16;4992918;28;20045;-88
2022/06/28 07:24:02;;;;;;;2.67;1.30;;;;;;;17.48;67.11;101547.50;4993029;28;20054;-88
2022/06/28 07:26:29;;;;;;;3.10;1.85;;;;;;;17.70;65.83;101545.19;4995758;28;21238;-87
2022/06/28 07:28:59;;;;;;;6.82;2.05;;;;;;;18.00;63.90;101548.91;4971388;28;20061;-87
2022/06/28 07:31:27;;;;;;;1.75;1.42;;;;;;;18.43;63.59;101552.16;5004309;28;20582;-88
2022/06/28 07:33:55;;;;;;;5.25;1.65;;;;;;;19.07;61.38;101545.09;4975421;28;20076;-87
2022/06/28 07:36:23;;;;;;;4.57;1.38;;;;;;;19.77;59.52;101546.44;4989948;28;20056;-89
2022/06/28 07:38:50;;;;;;;4.20;1.90;;;;;;;20.48;56.62;101549.31;4983941;28;20046;-86
2022/06/28 07:41:19;;;;;;;1.55;1.33;;;;;;;21.07;54.26;101542.72;4988249;28;20540;-87
2022/06/28 07:43:46;;;;;;;3.45;1.00;;;;;;;21.60;51.87;101544.19;4989925;28;20561;-88
2022/06/28 07:46:15;;;;;;;1.38;1.20;;;;;;;22.07;50.01;101545.78;4991024;28;20054;-91
2022/06/28 07:48:42;;;;;;;4.05;1.20;;;;;;;22.51;48.66;101550.13;4988454;28;20092;-86
2022/06/28 07:53:59;;;;;;;3.83;0.80;;;;;;;23.57;45.81;101551.44;4993594;23;20060;-84
2022/06/28 07:56:29;;;;;;;3.42;1.25;;;;;;;23.99;44.59;101549.38;4973698;28;20457;-86
2022/06/28 07:58:56;;;;;;;4.28;1.88;;;;;;;24.07;41.74;101547.19;4975611;28;20080;-85
2022/06/28 08:01:23;;;;;;;2.55;1.20;;;;;;;23.87;42.79;101548.16;4982010;28;20048;-84
2022/06/28 08:03:50;;;;;;;3.13;1.35;;;;;;;24.02;42.52;101550.09;4953754;28;20054;-87
2022/06/28 08:06:19;;;;;;;2.10;1.10;;;;;;;24.06;42.12;101550.81;4967699;28;20046;-86
2022/06/28 08:08:54;;;;;;;2.00;1.20;;;;;;;24.38;41.70;101542.88;4973827;28;20405;-84
2022/06/28 08:11:21;;;;;;;2.08;1.38;;;;;;;24.68;40.27;101548.47;4958461;28;20046;-86
2022/06/28 08:13:48;;;;;;;7.05;1.75;;;;;;;24.92;39.75;101553.41;4969330;28;20133;-84
2022/06/28 08:16:20;;;;;;;1.58;1.33;;;;;;;25.36;39.45;101549.22;4955668;28;20042;-83
2022/06/28 08:18:47;;;;;;;2.50;1.05;;;;;;;25.63;38.29;101545.88;4972872;28;20061;-87
2022/06/28 08:21:13;;;;;;;1.70;1.13;;;;;;;25.88;37.96;101556.03;4954397;28;20061;-85
2022/06/28 08:23:40;;;;;;;3.88;1.30;;;;;;;26.05;37.38;101555.06;4955158;28;20041;-84
2022/06/28 08:26:07;;;;;;;3.22;0.82;;;;;;;26.37;37.49;101557.59;4952751;28;20062;-84
2022/06/28 08:28:34;;;;;;;3.30;1.05;;;;;;;27.01;36.43;101559.91;4952375;28;20077;-84
2022/06/28 08:31:02;;;;;;;2.25;1.02;;;;;;;27.46;35.17;101557.06;4959983;28;20043;-85
2022/06/28 08:33:28;;;;;;;2.40;0.90;;;;;;;27.28;35.44;101551.03;4951482;28;20089;-84
2022/06/28 08:35:58;;;;;;;1.58;1.20;;;;;;;27.65;34.46;101557.56;4953080;28;20050;-86
2022/06/28 08:38:25;;;;;;;2.85;1.23;;;;;;;28.00;34.33;101557.00;4956060;28;20050;-84
2022/06/28 08:40:53;;;;;;;5.82;1.35;;;;;;;28.32;33.93;101553.91;4958305;28;20170;-85
2022/06/28 08:43:19;;;;;;;2.67;1.17;;;;;;;27.93;34.40;101566.44;4956161;28;20061;-85
2022/06/28 08:45:47;;;;;;;2.55;1.25;;;;;;;27.80;33.41;101555.66;4957952;28;20046;-87
2022/06/28 08:48:22;;;;;;;3.13;1.40;;;;;;;27.64;34.00;101561.19;4948378;28;20050;-85
2022/06/28 08:50:54;;;;;;;2.33;1.00;;;;;;;28.08;33.78;101553.78;4960402;28;20319;-84
2022/06/28 08:53:24;;;;;;;2.17;1.10;;;;;;;28.58;32.97;101566.50;4957673;28;20054;-86
2022/06/28 08:55:52;;;;;;;2.67;1.17;;;;;;;28.91;32.50;101557.00;4959678;28;20054;-84
2022/06/28 08:58:20;;;;;;;1.27;1.13;;;;;;;28.46;32.75;101565.53;4957599;28;20052;-85
2022/06/28 09:00:48;;;;;;;2.58;0.93;;;;;;;27.76;33.47;101566.72;4958721;28;20050;-85
2022/06/28 09:03:15;;;;;;;3.45;1.17;;;;;;;26.49;35.65;101567.59;4957774;28;20421;-84
2022/06/28 09:05:41;;;;;;;2.53;1.25;;;;;;;25.90;36.70;101567.53;4976746;28;20054;-86
2022/06/28 09:08:11;;;;;;;2.42;1.33;;;;;;;26.63;35.76;101571.22;4974986;28;20803;-86
2022/06/28 09:10:38;;;;;;;2.60;1.35;;;;;;;27.67;34.38;101562.81;4959640;28;20061;-87
2022/06/28 09:13:08;;;;;;;2.50;1.02;;;;;;;28.39;33.00;101566.00;4955115;28;20092;-87
2022/06/28 09:16:01;;;;;;;3.08;1.25;;;;;;;29.02;31.61;101563.34;4953991;28;20050;-86
2022/06/28 09:18:46;;;;;;;3.60;1.15;;;;;;;30.24;29.64;101571.41;4973802;28;20040;-85
2022/06/28 09:21:19;;;;;;;0.85;0.70;;;;;;;31.08;29.02;101565.69;4961042;28;20057;-85
2022/06/28 09:23:49;;;;;;;2.13;1.02;;;;;;;31.11;28.35;101563.59;4958591;28;20502;-84
2022/06/28 09:26:22;;;;;;;1.17;0.80;;;;;;;31.31;27.59;101564.63;4972587;28;20070;-85
2022/06/28 09:28:52;;;;;;;2.30;1.27;;;;;;;31.33;27.50;101567.25;4957976;28;20054;-85
2022/06/28 09:31:30;;;;;;;4.15;1.38;;;;;;;31.60;27.05;101558.66;4972032;28;20057;-85
2022/06/28 09:34:00;;;;;;;3.67;1.15;;;;;;;31.59;26.98;101558.75;4960483;28;20323;-84
2022/06/28 09:36:40;;;;;;;2.50;1.45;;;;;;;32.00;26.41;101552.56;4974576;28;20046;-86
2022/06/28 09:39:18;;;;;;;1.77;0.80;;;;;;;32.52;26.20;101551.75;4962769;28;20137;-86
2022/06/28 09:41:52;;;;;;;1.20;1.05;;;;;;;33.56;24.94;101545.16;4949719;28;20059;-86
2022/06/28 09:44:30;;;;;;;3.50;1.33;;;;;;;33.71;24.10;101551.00;4957679;28;20114;-86
2022/06/28 09:46:57;;;;;;;1.40;1.17;;;;;;;32.71;25.58;101550.97;4955092;28;20049;-85
2022/06/28 09:49:30;;;;;;;2.40;1.10;;;;;;;32.98;25.00;101544.94;4960313;28;20042;-85
2022/06/28 09:51:58;;;;;;;;;;;;;;;33.56;24.03;101545.16;4955071;28;20038;-86
2022/06/28 09:54:28;;;;;;;1.23;0.80;;;;;;;34.52;24.00;101547.84;4957972;28;19929;-85
2022/06/28 09:56:57;;;;;;;2.58;1.02;;;;;;;35.48;23.51;101546.63;4960037;28;20050;-86
2022/06/28 09:59:27;;;;;;;3.13;1.25;;;;;;;35.93;22.36;101552.94;4966333;28;20582;-84
2022/06/28 10:01:58;;;;;;;1.42;1.05;;;;;;;35.73;22.49;101550.38;4959365;28;20057;-86
2022/06/28 10:04:27;;;;;;;2.75;0.98;;;;;;;35.18;23.00;101547.84;4953700;28;20046;-84
2022/06/28 10:06:54;;;;;;;1.65;0.90;;;;;;;35.10;22.63;101556.75;4955105;28;20065;-86
2022/06/28 10:09:22;;;;;;;1.95;1.02;;;;;;;35.26;22.47;101550.63;4954022;28;20042;-85
2022/06/28 10:17:35;;;;;;;1.25;0.75;;;;;;;33.61;23.71;101546.44;4958499;28;20038;-86
2022/06/28 10:20:06;;;;;;;1.98;0.85;;;;;;;32.28;24.75;101543.91;5001453;28;20061;-86
2022/06/28 10:22:33;;;;;;;2.45;1.10;;;;;;;32.72;24.49;101549.97;4970715;28;20082;-85
2022/06/28 10:25:04;;;;;;;2.78;0.85;;;;;;;33.66;23.76;101537.88;4961791;28;20065;-84
2022/06/28 10:27:49;;;;;;;1.58;1.17;;;;;;;35.03;21.41;101542.03;4977737;28;20050;-83
2022/06/28 10:30:31;;;;;;;1.67;0.70;;;;;;;36.13;20.92;101531.81;4975460;28;20080;-85
2022/06/28 10:33:05;;;;;;;2.65;0.75;;;;;;;36.95;20.06;101542.28;4969680;28;20100;-86
2022/06/28 10:35:32;;;;;;;2.58;0.93;;;;;;;36.80;20.25;101539.31;4958993;28;20520;-85
2022/06/28 10:38:14;;;;;;;1.15;0.98;;;;;;;37.02;19.45;101539.75;4991299;28;20061;-87
2022/06/28 10:40:45;;;;;;;0.80;0.60;;;;;;;37.29;20.21;101535.00;4986019;28;20054;-87
2022/06/28 10:43:36;;;;;;;2.33;0.70;;;;;;;37.92;19.03;101527.22;4972677;28;20420;-85
2022/06/28 10:46:09;;;;;;;3.90;1.23;;;;;;;38.00;18.64;101530.75;4958013;28;20045;-85
2022/06/28 10:48:51;;;;;;;3.08;1.25;;;;;;;38.14;18.55;101540.13;4959421;28;20054;-85
2022/06/28 10:51:22;;;;;;;2.38;1.10;;;;;;;37.02;19.13;101540.59;4972870;28;20169;-85
2022/06/28 10:54:11;;;;;;;3.00;0.93;;;;;;;36.01;19.81;101531.22;4955953;28;20050;-84
2022/06/28 10:56:42;;;;;;;1.00;0.90;;;;;;;36.08;20.31;101529.56;4953406;28;20042;-84
2022/06/28 10:59:18;;;;;;;2.45;1.40;;;;;;;37.28;19.33;101530.59;4956239;28;20054;-85
2022/06/28 11:01:47;;;;;;;2.42;1.42;;;;;;;37.11;19.22;101521.53;4957032;28;20390;-86
2022/06/28 11:04:21;;;;;;;4.00;2.25;;;;;;;35.51;20.57;101521.78;4977182;28;20125;-86
2022/06/28 11:07:32;;;;;;;2.92;1.00;;;;;;;35.43;20.54;101510.84;4975481;28;20345;-85
2022/06/28 11:10:03;;;;;;;3.10;0.90;;;;;;;34.08;21.63;101515.81;4908297;29;20049;-85
2022/06/28 11:12:35;;;;;;;3.05;1.08;;;;;;;32.28;23.49;101514.97;4910976;28;20132;-85
2022/06/28 11:15:27;;;;;;;1.02;0.75;;;;;;;30.73;25.50;101518.03;4973771;28;20050;-83
2022/06/28 11:17:54;;;;;;;1.83;1.08;;;;;;;29.53;26.68;101516.44;4973691;28;20050;-85
2022/06/28 11:20:25;;;;;;;3.00;0.80;;;;;;;28.63;28.29;101521.25;4956831;28;20058;-86
2022/06/28 11:22:53;;;;;;;1.57;1.37;;;;;;;27.84;29.52;101518.63;4970302;28;20050;-84
2022/06/28 11:27:19;;;;;;;1.48;0.95;;;;;;;28.88;28.32;101507.75;4970775;28;20294;-85
2022/06/28 11:28:16;;;;;;;4.60;0.82;;;;;;;31.69;25.20;101494.78;4962504;28;20046;-86
2022/06/28 11:30:43;;;;;;;2.10;1.10;;;;;;;34.30;22.83;101492.00;4966180;28;20064;-84
2022/06/28 11:33:11;;;;;;;3.10;1.85;;;;;;;35.30;21.91;101494.88;4953967;28;20061;-87
2022/06/28 11:35:40;;;;;;;2.65;1.67;;;;;;;34.79;22.32;101489.91;4952712;28;20061;-86
2022/06/28 11:38:09;;;;;;;2.72;1.95;;;;;;;35.51;21.69;101488.28;4955393;28;20093;-85
2022/06/28 11:40:49;;;;;;;2.20;1.35;;;;;;;36.63;20.09;101474.81;4951929;28;20153;-85
2022/06/28 11:43:19;;;;;;;3.50;2.35;;;;;;;37.32;19.36;101475.47;4953014;28;20149;-85
2022/06/28 11:45:51;;;;;;;4.10;1.23;;;;;;;37.60;19.02;101477.88;4952642;28;20073;-85
2022/06/28 11:48:29;;;;;;;1.73;1.08;;;;;;;36.68;19.87;101477.91;4952894;28;20724;-85
2022/06/28 11:50:59;;;;;;;1.13;0.70;;;;;;;34.99;21.60;101484.34;4956819;28;20140;-85
2022/06/28 11:53:29;;;;;;;1.48;0.82;;;;;;;35.48;20.54;101478.56;4973991;28;20046;-84
2022/06/28 11:55:58;;;;;;;0.95;0.70;;;;;;;34.59;21.96;101483.72;4958148;28;21035;-86
2022/06/28 11:58:38;;;;;;;1.52;0.68;;;;;;;33.64;22.64;101472.84;4956139;28;20050;-85
2022/06/28 12:01:12;;;;;;;4.18;0.80;;;;;;;33.75;22.25;101474.53;4954460;28;20146;-86
2022/06/28 12:03:42;;;;;;;2.08;0.63;;;;;;;35.00;21.47;101477.91;4970382;28;20057;-85
2022/06/28 12:06:34;;;;;;;1.70;0.80;;;;;;;36.04;19.89;101465.50;4966610;28;20051;-85